sensor_id;sensor_type;location;lat;lon;timestamp;P1;durP1;ratioP1;P2;durP2;ratioP2
78873;SDS011;68250;43.514;1.494;2023-06-14T00:01:40;5.35;;;2.33;;
78873;SDS011;68250;43.514;1.494;2023-06-14T00:04:06;5.33;;;2.53;;
78873;SDS011;68250;43.514;1.494;2023-06-14T00:06:33;4.93;;;2.70;;
78873;SDS011;68250;43.514;1.494;2023-06-14T00:08:59;5.10;;;2.50;;
78873;SDS011;68250;43.514;1.494;2023-06-14T00:11:25;4.80;;;2.77;;
78873;SDS011;68250;43.514;1.494;2023-06-14T00:13:52;5.10;;;2.75;;
78873;SDS011;68250;43.514;1.494;2023-06-14T00:16:18;5.03;;;2.50;;
78873;SDS011;68250;43.514;1.494;2023-06-14T00:18:44;6.95;;;2.85;;
78873;SDS011;68250;43.514;1.494;2023-06-14T00:21:11;6.37;;;2.90;;
78873;SDS011;68250;43.514;1.494;2023-06-14T00:23:37;6.60;;;2.85;;
78873;SDS011;68250;43.514;1.494;2023-06-14T00:26:03;6.32;;;2.65;;
78873;SDS011;68250;43.514;1.494;2023-06-14T00:28:28;5.63;;;2.83;;
78873;SDS011;68250;43.514;1.494;2023-06-14T00:30:54;5.83;;;2.80;;
78873;SDS011;68250;43.514;1.494;2023-06-14T00:33:20;5.23;;;2.60;;
78873;SDS011;68250;43.514;1.494;2023-06-14T00:35:46;5.27;;;2.70;;
78873;SDS011;68250;43.514;1.494;2023-06-14T00:38:12;7.80;;;3.17;;
78873;SDS011;68250;43.514;1.494;2023-06-14T00:40:38;5.32;;;2.70;;
78873;SDS011;68250;43.514;1.494;2023-06-14T00:43:03;9.27;;;3.03;;
78873;SDS011;68250;43.514;1.494;2023-06-14T00:45:29;5.30;;;3.10;;
78873;SDS011;68250;43.514;1.494;2023-06-14T00:47:56;5.00;;;2.63;;
78873;SDS011;68250;43.514;1.494;2023-06-14T00:50:22;5.22;;;2.72;;
78873;SDS011;68250;43.514;1.494;2023-06-14T00:52:48;5.00;;;3.10;;
78873;SDS011;68250;43.514;1.494;2023-06-14T00:55:14;6.10;;;2.60;;
78873;SDS011;68250;43.514;1.494;2023-06-14T00:57:40;4.78;;;2.83;;
78873;SDS011;68250;43.514;1.494;2023-06-14T01:00:07;5.20;;;2.63;;
78873;SDS011;68250;43.514;1.494;2023-06-14T01:02:35;6.55;;;2.72;;
78873;SDS011;68250;43.514;1.494;2023-06-14T01:05:02;6.25;;;3.20;;
78873;SDS011;68250;43.514;1.494;2023-06-14T01:15:57;6.78;;;3.45;;
78873;SDS011;68250;43.514;1.494;2023-06-14T01:18:24;9.55;;;3.70;;
78873;SDS011;68250;43.514;1.494;2023-06-14T01:20:51;7.68;;;3.58;;
78873;SDS011;68250;43.514;1.494;2023-06-14T01:23:20;8.17;;;4.50;;
78873;SDS011;68250;43.514;1.494;2023-06-14T01:25:47;8.07;;;4.78;;
78873;SDS011;68250;43.514;1.494;2023-06-14T01:28:17;10.15;;;5.25;;
78873;SDS011;68250;43.514;1.494;2023-06-14T01:30:46;10.35;;;5.10;;
78873;SDS011;68250;43.514;1.494;2023-06-14T01:33:14;9.55;;;5.20;;
78873;SDS011;68250;43.514;1.494;2023-06-14T01:35:44;9.50;;;5.27;;
78873;SDS011;68250;43.514;1.494;2023-06-14T01:38:11;9.07;;;4.72;;
78873;SDS011;68250;43.514;1.494;2023-06-14T01:40:38;9.88;;;4.75;;
78873;SDS011;68250;43.514;1.494;2023-06-14T01:43:04;8.70;;;4.75;;
78873;SDS011;68250;43.514;1.494;2023-06-14T01:45:30;8.38;;;4.70;;
78873;SDS011;68250;43.514;1.494;2023-06-14T01:47:57;11.30;;;4.70;;
78873;SDS011;68250;43.514;1.494;2023-06-14T01:50:22;9.00;;;4.82;;
78873;SDS011;68250;43.514;1.494;2023-06-14T01:52:48;8.00;;;4.70;;
78873;SDS011;68250;43.514;1.494;2023-06-14T01:55:13;7.90;;;4.85;;
78873;SDS011;68250;43.514;1.494;2023-06-14T01:57:40;7.80;;;5.03;;
78873;SDS011;68250;43.514;1.494;2023-06-14T02:00:06;9.20;;;5.97;;
78873;SDS011;68250;43.514;1.494;2023-06-14T02:02:35;9.95;;;6.38;;
78873;SDS011;68250;43.514;1.494;2023-06-14T02:05:01;9.97;;;5.50;;
78873;SDS011;68250;43.514;1.494;2023-06-14T02:07:26;9.23;;;5.70;;
78873;SDS011;68250;43.514;1.494;2023-06-14T02:09:52;11.47;;;6.60;;
78873;SDS011;68250;43.514;1.494;2023-06-14T02:12:18;11.13;;;6.85;;
78873;SDS011;68250;43.514;1.494;2023-06-14T02:14:43;11.33;;;7.17;;
78873;SDS011;68250;43.514;1.494;2023-06-14T02:17:09;12.23;;;7.45;;
78873;SDS011;68250;43.514;1.494;2023-06-14T02:19:35;12.43;;;7.05;;
78873;SDS011;68250;43.514;1.494;2023-06-14T02:22:01;13.40;;;7.53;;
78873;SDS011;68250;43.514;1.494;2023-06-14T02:24:26;11.70;;;7.30;;
78873;SDS011;68250;43.514;1.494;2023-06-14T02:26:52;11.40;;;7.50;;
78873;SDS011;68250;43.514;1.494;2023-06-14T02:29:18;12.03;;;7.83;;
78873;SDS011;68250;43.514;1.494;2023-06-14T02:31:43;10.93;;;6.85;;
78873;SDS011;68250;43.514;1.494;2023-06-14T02:34:09;14.83;;;7.43;;
78873;SDS011;68250;43.514;1.494;2023-06-14T02:36:35;12.15;;;7.75;;
78873;SDS011;68250;43.514;1.494;2023-06-14T02:39:06;10.93;;;7.15;;
78873;SDS011;68250;43.514;1.494;2023-06-14T02:41:35;12.63;;;7.23;;
78873;SDS011;68250;43.514;1.494;2023-06-14T02:44:01;10.60;;;7.60;;
78873;SDS011;68250;43.514;1.494;2023-06-14T02:46:26;12.80;;;7.60;;
78873;SDS011;68250;43.514;1.494;2023-06-14T02:48:52;15.10;;;7.95;;
78873;SDS011;68250;43.514;1.494;2023-06-14T02:51:17;13.00;;;7.10;;
78873;SDS011;68250;43.514;1.494;2023-06-14T02:53:43;13.10;;;7.90;;
78873;SDS011;68250;43.514;1.494;2023-06-14T02:56:09;14.82;;;8.30;;
78873;SDS011;68250;43.514;1.494;2023-06-14T02:58:38;13.67;;;8.13;;
78873;SDS011;68250;43.514;1.494;2023-06-14T03:01:05;14.52;;;8.15;;
78873;SDS011;68250;43.514;1.494;2023-06-14T03:03:33;11.80;;;7.63;;
78873;SDS011;68250;43.514;1.494;2023-06-14T03:05:59;12.65;;;8.18;;
78873;SDS011;68250;43.514;1.494;2023-06-14T03:08:30;16.80;;;8.20;;
78873;SDS011;68250;43.514;1.494;2023-06-14T03:10:57;13.57;;;8.70;;
78873;SDS011;68250;43.514;1.494;2023-06-14T03:13:22;12.57;;;8.65;;
78873;SDS011;68250;43.514;1.494;2023-06-14T03:15:48;15.80;;;8.55;;
78873;SDS011;68250;43.514;1.494;2023-06-14T03:18:16;15.80;;;8.50;;
78873;SDS011;68250;43.514;1.494;2023-06-14T03:20:41;13.73;;;8.65;;
78873;SDS011;68250;43.514;1.494;2023-06-14T03:23:10;13.88;;;8.25;;
78873;SDS011;68250;43.514;1.494;2023-06-14T03:25:36;15.23;;;8.23;;
78873;SDS011;68250;43.514;1.494;2023-06-14T03:28:04;12.18;;;8.13;;
78873;SDS011;68250;43.514;1.494;2023-06-14T03:30:30;13.77;;;7.73;;
78873;SDS011;68250;43.514;1.494;2023-06-14T03:32:56;16.23;;;8.23;;
78873;SDS011;68250;43.514;1.494;2023-06-14T03:35:22;13.15;;;7.90;;
78873;SDS011;68250;43.514;1.494;2023-06-14T03:37:48;13.70;;;8.27;;
78873;SDS011;68250;43.514;1.494;2023-06-14T03:40:15;14.10;;;8.10;;
78873;SDS011;68250;43.514;1.494;2023-06-14T03:42:42;15.00;;;8.13;;
78873;SDS011;68250;43.514;1.494;2023-06-14T03:45:08;18.25;;;8.55;;
78873;SDS011;68250;43.514;1.494;2023-06-14T03:47:34;13.80;;;8.47;;
78873;SDS011;68250;43.514;1.494;2023-06-14T03:50:00;12.85;;;7.97;;
78873;SDS011;68250;43.514;1.494;2023-06-14T03:52:26;14.50;;;8.50;;
78873;SDS011;68250;43.514;1.494;2023-06-14T03:54:52;14.65;;;9.00;;
78873;SDS011;68250;43.514;1.494;2023-06-14T03:57:18;14.37;;;8.33;;
78873;SDS011;68250;43.514;1.494;2023-06-14T03:59:45;16.50;;;8.85;;
78873;SDS011;68250;43.514;1.494;2023-06-14T04:08:53;13.07;;;8.32;;
78873;SDS011;68250;43.514;1.494;2023-06-14T04:11:19;11.87;;;7.97;;
78873;SDS011;68250;43.514;1.494;2023-06-14T04:13:45;12.43;;;8.48;;
78873;SDS011;68250;43.514;1.494;2023-06-14T04:16:12;12.90;;;8.13;;
78873;SDS011;68250;43.514;1.494;2023-06-14T04:21:59;15.27;;;7.80;;
78873;SDS011;68250;43.514;1.494;2023-06-14T04:24:48;15.00;;;8.27;;
78873;SDS011;68250;43.514;1.494;2023-06-14T04:31:16;12.07;;;8.33;;
78873;SDS011;68250;43.514;1.494;2023-06-14T07:12:05;18.77;;;12.30;;
78873;SDS011;68250;43.514;1.494;2023-06-14T07:14:36;17.75;;;11.77;;
78873;SDS011;68250;43.514;1.494;2023-06-14T07:17:01;21.10;;;11.70;;
78873;SDS011;68250;43.514;1.494;2023-06-14T07:53:22;18.33;;;10.43;;
78873;SDS011;68250;43.514;1.494;2023-06-14T07:55:48;17.40;;;11.30;;
78873;SDS011;68250;43.514;1.494;2023-06-14T07:58:14;18.60;;;11.48;;
78873;SDS011;68250;43.514;1.494;2023-06-14T08:00:40;17.50;;;11.52;;
78873;SDS011;68250;43.514;1.494;2023-06-14T08:03:05;18.27;;;11.60;;
78873;SDS011;68250;43.514;1.494;2023-06-14T08:05:31;21.70;;;12.57;;
78873;SDS011;68250;43.514;1.494;2023-06-14T08:07:57;20.05;;;11.98;;
78873;SDS011;68250;43.514;1.494;2023-06-14T08:10:22;19.90;;;11.70;;
78873;SDS011;68250;43.514;1.494;2023-06-14T08:12:48;20.77;;;11.43;;
78873;SDS011;68250;43.514;1.494;2023-06-14T08:15:15;20.05;;;11.35;;
78873;SDS011;68250;43.514;1.494;2023-06-14T08:17:44;21.42;;;11.57;;
78873;SDS011;68250;43.514;1.494;2023-06-14T08:20:10;19.02;;;11.82;;
78873;SDS011;68250;43.514;1.494;2023-06-14T08:22:36;17.52;;;10.80;;
78873;SDS011;68250;43.514;1.494;2023-06-14T08:25:03;20.53;;;11.60;;
78873;SDS011;68250;43.514;1.494;2023-06-14T08:27:29;19.42;;;11.20;;
78873;SDS011;68250;43.514;1.494;2023-06-14T08:29:55;25.88;;;11.40;;
78873;SDS011;68250;43.514;1.494;2023-06-14T08:32:21;17.00;;;11.05;;
78873;SDS011;68250;43.514;1.494;2023-06-14T08:34:47;19.45;;;10.80;;
78873;SDS011;68250;43.514;1.494;2023-06-14T08:37:12;20.17;;;10.43;;
78873;SDS011;68250;43.514;1.494;2023-06-14T08:39:38;17.60;;;10.93;;
78873;SDS011;68250;43.514;1.494;2023-06-14T08:42:04;19.03;;;11.17;;
78873;SDS011;68250;43.514;1.494;2023-06-14T08:44:31;19.60;;;10.60;;
78873;SDS011;68250;43.514;1.494;2023-06-14T08:46:57;20.02;;;11.43;;
78873;SDS011;68250;43.514;1.494;2023-06-14T08:49:24;17.10;;;10.23;;
78873;SDS011;68250;43.514;1.494;2023-06-14T08:51:56;18.50;;;10.77;;
78873;SDS011;68250;43.514;1.494;2023-06-14T08:54:23;16.77;;;10.60;;
78873;SDS011;68250;43.514;1.494;2023-06-14T08:56:52;19.70;;;9.82;;
78873;SDS011;68250;43.514;1.494;2023-06-14T08:59:23;18.13;;;10.15;;
78873;SDS011;68250;43.514;1.494;2023-06-14T09:01:50;18.75;;;10.50;;
78873;SDS011;68250;43.514;1.494;2023-06-14T09:04:17;19.20;;;10.47;;
78873;SDS011;68250;43.514;1.494;2023-06-14T09:06:45;20.67;;;10.75;;
78873;SDS011;68250;43.514;1.494;2023-06-14T09:09:10;22.33;;;10.40;;
78873;SDS011;68250;43.514;1.494;2023-06-14T09:11:37;16.38;;;10.43;;
78873;SDS011;68250;43.514;1.494;2023-06-14T09:14:03;15.80;;;9.83;;
78873;SDS011;68250;43.514;1.494;2023-06-14T09:16:31;16.30;;;9.73;;
78873;SDS011;68250;43.514;1.494;2023-06-14T09:18:57;17.25;;;9.77;;
78873;SDS011;68250;43.514;1.494;2023-06-14T09:21:23;14.13;;;9.37;;
78873;SDS011;68250;43.514;1.494;2023-06-14T09:23:48;19.30;;;10.38;;
78873;SDS011;68250;43.514;1.494;2023-06-14T09:26:15;17.70;;;9.87;;
78873;SDS011;68250;43.514;1.494;2023-06-14T09:28:46;20.42;;;10.73;;
78873;SDS011;68250;43.514;1.494;2023-06-14T09:31:16;17.77;;;10.30;;
78873;SDS011;68250;43.514;1.494;2023-06-14T09:33:46;15.10;;;9.60;;
78873;SDS011;68250;43.514;1.494;2023-06-14T09:36:18;17.02;;;10.60;;
78873;SDS011;68250;43.514;1.494;2023-06-14T09:38:56;17.40;;;10.75;;
78873;SDS011;68250;43.514;1.494;2023-06-14T09:41:32;14.75;;;10.25;;
78873;SDS011;68250;43.514;1.494;2023-06-14T09:44:06;16.48;;;10.48;;
78873;SDS011;68250;43.514;1.494;2023-06-14T09:46:33;19.17;;;9.90;;
78873;SDS011;68250;43.514;1.494;2023-06-14T09:48:59;16.90;;;10.55;;
78873;SDS011;68250;43.514;1.494;2023-06-14T09:51:26;18.00;;;10.13;;
78873;SDS011;68250;43.514;1.494;2023-06-14T09:53:53;20.65;;;10.52;;
78873;SDS011;68250;43.514;1.494;2023-06-14T09:56:27;16.67;;;10.13;;
78873;SDS011;68250;43.514;1.494;2023-06-14T09:58:57;21.13;;;10.57;;
78873;SDS011;68250;43.514;1.494;2023-06-14T10:01:24;16.42;;;10.23;;
78873;SDS011;68250;43.514;1.494;2023-06-14T10:06:40;16.60;;;10.13;;
78873;SDS011;68250;43.514;1.494;2023-06-14T10:09:09;15.63;;;9.27;;
78873;SDS011;68250;43.514;1.494;2023-06-14T10:11:35;15.37;;;10.10;;
78873;SDS011;68250;43.514;1.494;2023-06-14T10:14:13;20.73;;;10.63;;
78873;SDS011;68250;43.514;1.494;2023-06-14T10:50:59;15.15;;;9.25;;
78873;SDS011;68250;43.514;1.494;2023-06-14T11:25:32;16.00;;;9.13;;
78873;SDS011;68250;43.514;1.494;2023-06-14T11:31:31;16.10;;;9.20;;
78873;SDS011;68250;43.514;1.494;2023-06-14T11:44:03;16.55;;;9.13;;
78873;SDS011;68250;43.514;1.494;2023-06-14T11:46:30;17.10;;;9.10;;
78873;SDS011;68250;43.514;1.494;2023-06-14T11:48:56;15.98;;;8.70;;
78873;SDS011;68250;43.514;1.494;2023-06-14T11:51:23;19.35;;;10.10;;
78873;SDS011;68250;43.514;1.494;2023-06-14T11:53:48;18.23;;;9.17;;
78873;SDS011;68250;43.514;1.494;2023-06-14T11:56:14;15.55;;;9.10;;
78873;SDS011;68250;43.514;1.494;2023-06-14T11:58:42;13.05;;;9.13;;
78873;SDS011;68250;43.514;1.494;2023-06-14T12:01:08;14.40;;;8.68;;
78873;SDS011;68250;43.514;1.494;2023-06-14T12:03:34;14.30;;;8.97;;
78873;SDS011;68250;43.514;1.494;2023-06-14T12:06:07;14.63;;;8.70;;
78873;SDS011;68250;43.514;1.494;2023-06-14T12:08:34;16.02;;;9.00;;
78873;SDS011;68250;43.514;1.494;2023-06-14T12:11:04;12.33;;;8.43;;
78873;SDS011;68250;43.514;1.494;2023-06-14T12:13:31;13.43;;;8.95;;
78873;SDS011;68250;43.514;1.494;2023-06-14T12:15:56;13.90;;;8.65;;
78873;SDS011;68250;43.514;1.494;2023-06-14T12:18:31;15.00;;;8.63;;
78873;SDS011;68250;43.514;1.494;2023-06-14T12:20:59;15.98;;;8.68;;
78873;SDS011;68250;43.514;1.494;2023-06-14T12:23:44;14.63;;;9.00;;
78873;SDS011;68250;43.514;1.494;2023-06-14T12:26:14;13.15;;;8.23;;
78873;SDS011;68250;43.514;1.494;2023-06-14T12:28:41;12.68;;;8.38;;
78873;SDS011;68250;43.514;1.494;2023-06-14T12:31:08;16.77;;;9.27;;
78873;SDS011;68250;43.514;1.494;2023-06-14T12:33:34;17.02;;;8.60;;
78873;SDS011;68250;43.514;1.494;2023-06-14T12:36:02;15.43;;;8.55;;
78873;SDS011;68250;43.514;1.494;2023-06-14T12:38:29;13.20;;;8.20;;
78873;SDS011;68250;43.514;1.494;2023-06-14T12:40:54;15.60;;;8.50;;
78873;SDS011;68250;43.514;1.494;2023-06-14T12:43:20;13.50;;;8.27;;
78873;SDS011;68250;43.514;1.494;2023-06-14T12:45:46;17.87;;;8.47;;
78873;SDS011;68250;43.514;1.494;2023-06-14T12:48:11;13.15;;;8.07;;
78873;SDS011;68250;43.514;1.494;2023-06-14T12:50:37;15.57;;;8.47;;
78873;SDS011;68250;43.514;1.494;2023-06-14T12:53:03;11.18;;;7.72;;
78873;SDS011;68250;43.514;1.494;2023-06-14T12:55:28;17.83;;;8.33;;
78873;SDS011;68250;43.514;1.494;2023-06-14T12:57:54;12.40;;;7.75;;
78873;SDS011;68250;43.514;1.494;2023-06-14T13:00:20;12.60;;;8.40;;
78873;SDS011;68250;43.514;1.494;2023-06-14T13:02:47;14.85;;;8.07;;
78873;SDS011;68250;43.514;1.494;2023-06-14T13:05:12;12.80;;;8.40;;
78873;SDS011;68250;43.514;1.494;2023-06-14T13:07:38;13.90;;;8.20;;
78873;SDS011;68250;43.514;1.494;2023-06-14T13:10:04;13.30;;;8.20;;
78873;SDS011;68250;43.514;1.494;2023-06-14T13:12:30;13.43;;;8.60;;
78873;SDS011;68250;43.514;1.494;2023-06-14T13:14:56;13.93;;;8.50;;
78873;SDS011;68250;43.514;1.494;2023-06-14T13:17:21;12.60;;;8.37;;
78873;SDS011;68250;43.514;1.494;2023-06-14T13:19:47;14.13;;;8.13;;
78873;SDS011;68250;43.514;1.494;2023-06-14T13:22:13;15.20;;;8.03;;
78873;SDS011;68250;43.514;1.494;2023-06-14T13:24:38;15.05;;;8.02;;
78873;SDS011;68250;43.514;1.494;2023-06-14T13:27:04;12.77;;;8.43;;
78873;SDS011;68250;43.514;1.494;2023-06-14T13:29:30;14.20;;;8.60;;
78873;SDS011;68250;43.514;1.494;2023-06-14T13:31:57;15.57;;;8.57;;
78873;SDS011;68250;43.514;1.494;2023-06-14T13:34:23;12.43;;;7.88;;
78873;SDS011;68250;43.514;1.494;2023-06-14T13:36:49;12.23;;;8.03;;
78873;SDS011;68250;43.514;1.494;2023-06-14T13:39:15;13.45;;;8.00;;
78873;SDS011;68250;43.514;1.494;2023-06-14T13:41:41;11.40;;;8.07;;
78873;SDS011;68250;43.514;1.494;2023-06-14T13:44:07;11.50;;;8.00;;
78873;SDS011;68250;43.514;1.494;2023-06-14T13:46:33;14.27;;;7.93;;
78873;SDS011;68250;43.514;1.494;2023-06-14T13:48:58;13.77;;;7.70;;
78873;SDS011;68250;43.514;1.494;2023-06-14T13:51:26;11.32;;;7.07;;
78873;SDS011;68250;43.514;1.494;2023-06-14T13:53:52;12.73;;;7.47;;
78873;SDS011;68250;43.514;1.494;2023-06-14T13:56:18;13.35;;;7.82;;
78873;SDS011;68250;43.514;1.494;2023-06-14T13:58:44;12.30;;;8.50;;
78873;SDS011;68250;43.514;1.494;2023-06-14T14:01:10;12.05;;;7.85;;
78873;SDS011;68250;43.514;1.494;2023-06-14T14:03:36;15.82;;;7.93;;
78873;SDS011;68250;43.514;1.494;2023-06-14T14:06:03;12.60;;;7.83;;
78873;SDS011;68250;43.514;1.494;2023-06-14T14:08:29;11.25;;;7.35;;
78873;SDS011;68250;43.514;1.494;2023-06-14T14:10:55;12.98;;;7.53;;
78873;SDS011;68250;43.514;1.494;2023-06-14T14:13:21;15.27;;;7.47;;
78873;SDS011;68250;43.514;1.494;2023-06-14T14:15:47;13.25;;;7.72;;
78873;SDS011;68250;43.514;1.494;2023-06-14T14:18:14;11.00;;;7.50;;
78873;SDS011;68250;43.514;1.494;2023-06-14T14:20:40;11.80;;;7.28;;
78873;SDS011;68250;43.514;1.494;2023-06-14T14:23:06;14.53;;;8.13;;
78873;SDS011;68250;43.514;1.494;2023-06-14T14:25:32;11.50;;;8.03;;
78873;SDS011;68250;43.514;1.494;2023-06-14T14:27:57;13.77;;;8.73;;
78873;SDS011;68250;43.514;1.494;2023-06-14T14:30:23;16.67;;;8.33;;
78873;SDS011;68250;43.514;1.494;2023-06-14T14:32:49;15.70;;;8.70;;
78873;SDS011;68250;43.514;1.494;2023-06-14T14:35:16;13.37;;;8.37;;
78873;SDS011;68250;43.514;1.494;2023-06-14T14:37:43;13.75;;;8.50;;
78873;SDS011;68250;43.514;1.494;2023-06-14T14:40:09;13.85;;;8.70;;
78873;SDS011;68250;43.514;1.494;2023-06-14T14:42:35;13.23;;;8.48;;
78873;SDS011;68250;43.514;1.494;2023-06-14T14:45:01;15.77;;;8.15;;
78873;SDS011;68250;43.514;1.494;2023-06-14T14:47:27;13.80;;;8.67;;
78873;SDS011;68250;43.514;1.494;2023-06-14T14:49:53;15.15;;;8.45;;
78873;SDS011;68250;43.514;1.494;2023-06-14T14:52:18;15.00;;;8.30;;
78873;SDS011;68250;43.514;1.494;2023-06-14T14:54:44;16.95;;;8.90;;
78873;SDS011;68250;43.514;1.494;2023-06-14T14:57:10;15.17;;;8.63;;
78873;SDS011;68250;43.514;1.494;2023-06-14T14:59:35;16.42;;;8.95;;
78873;SDS011;68250;43.514;1.494;2023-06-14T15:02:01;14.43;;;8.37;;
78873;SDS011;68250;43.514;1.494;2023-06-14T15:04:27;12.55;;;8.23;;
78873;SDS011;68250;43.514;1.494;2023-06-14T15:06:53;13.57;;;8.80;;
78873;SDS011;68250;43.514;1.494;2023-06-14T15:09:18;15.13;;;8.70;;
78873;SDS011;68250;43.514;1.494;2023-06-14T15:11:44;13.40;;;8.93;;
78873;SDS011;68250;43.514;1.494;2023-06-14T15:14:10;12.63;;;7.80;;
78873;SDS011;68250;43.514;1.494;2023-06-14T15:16:36;12.20;;;8.60;;
78873;SDS011;68250;43.514;1.494;2023-06-14T15:19:02;14.67;;;8.00;;
78873;SDS011;68250;43.514;1.494;2023-06-14T15:21:27;15.43;;;7.85;;
78873;SDS011;68250;43.514;1.494;2023-06-14T15:23:53;11.17;;;7.87;;
78873;SDS011;68250;43.514;1.494;2023-06-14T15:26:19;11.77;;;7.90;;
78873;SDS011;68250;43.514;1.494;2023-06-14T15:28:45;13.07;;;8.43;;
78873;SDS011;68250;43.514;1.494;2023-06-14T15:31:11;12.30;;;7.87;;
78873;SDS011;68250;43.514;1.494;2023-06-14T15:33:36;13.68;;;8.20;;
78873;SDS011;68250;43.514;1.494;2023-06-14T15:36:02;14.07;;;7.93;;
78873;SDS011;68250;43.514;1.494;2023-06-14T15:38:29;14.25;;;8.25;;
78873;SDS011;68250;43.514;1.494;2023-06-14T15:40:55;12.73;;;7.88;;
78873;SDS011;68250;43.514;1.494;2023-06-14T15:43:21;12.83;;;7.67;;
78873;SDS011;68250;43.514;1.494;2023-06-14T15:45:48;13.00;;;7.72;;
78873;SDS011;68250;43.514;1.494;2023-06-14T15:48:13;14.87;;;8.03;;
78873;SDS011;68250;43.514;1.494;2023-06-14T15:50:39;12.27;;;8.18;;
78873;SDS011;68250;43.514;1.494;2023-06-14T15:53:05;14.10;;;8.30;;
78873;SDS011;68250;43.514;1.494;2023-06-14T15:55:31;11.93;;;7.60;;
78873;SDS011;68250;43.514;1.494;2023-06-14T15:57:56;11.05;;;7.53;;
78873;SDS011;68250;43.514;1.494;2023-06-14T16:00:22;14.00;;;7.77;;
78873;SDS011;68250;43.514;1.494;2023-06-14T16:02:50;14.10;;;6.90;;
78873;SDS011;68250;43.514;1.494;2023-06-14T16:05:16;11.37;;;7.70;;
78873;SDS011;68250;43.514;1.494;2023-06-14T16:07:41;14.43;;;7.72;;
78873;SDS011;68250;43.514;1.494;2023-06-14T16:10:07;10.97;;;7.63;;
78873;SDS011;68250;43.514;1.494;2023-06-14T16:12:33;12.90;;;7.93;;
78873;SDS011;68250;43.514;1.494;2023-06-14T16:14:59;10.27;;;7.22;;
78873;SDS011;68250;43.514;1.494;2023-06-14T16:17:25;13.17;;;7.40;;
78873;SDS011;68250;43.514;1.494;2023-06-14T16:19:51;13.82;;;8.00;;
78873;SDS011;68250;43.514;1.494;2023-06-14T16:22:17;13.73;;;7.47;;
78873;SDS011;68250;43.514;1.494;2023-06-14T16:24:43;12.13;;;6.80;;
78873;SDS011;68250;43.514;1.494;2023-06-14T16:27:08;13.88;;;7.68;;
78873;SDS011;68250;43.514;1.494;2023-06-14T16:29:35;11.73;;;7.03;;
78873;SDS011;68250;43.514;1.494;2023-06-14T16:32:02;10.40;;;7.05;;
78873;SDS011;68250;43.514;1.494;2023-06-14T16:34:28;14.70;;;7.50;;
78873;SDS011;68250;43.514;1.494;2023-06-14T16:36:55;12.57;;;7.80;;
78873;SDS011;68250;43.514;1.494;2023-06-14T16:39:21;13.05;;;8.10;;
78873;SDS011;68250;43.514;1.494;2023-06-14T16:41:47;11.77;;;7.30;;
78873;SDS011;68250;43.514;1.494;2023-06-14T16:44:13;15.23;;;7.57;;
78873;SDS011;68250;43.514;1.494;2023-06-14T16:46:39;13.27;;;7.55;;
78873;SDS011;68250;43.514;1.494;2023-06-14T16:49:05;12.18;;;7.53;;
78873;SDS011;68250;43.514;1.494;2023-06-14T16:51:31;10.93;;;7.17;;
78873;SDS011;68250;43.514;1.494;2023-06-14T16:53:57;10.30;;;7.70;;
78873;SDS011;68250;43.514;1.494;2023-06-14T16:56:23;12.45;;;7.70;;
78873;SDS011;68250;43.514;1.494;2023-06-14T16:58:56;15.03;;;7.47;;
78873;SDS011;68250;43.514;1.494;2023-06-14T17:01:25;14.13;;;6.93;;
78873;SDS011;68250;43.514;1.494;2023-06-14T17:03:51;15.00;;;7.50;;
78873;SDS011;68250;43.514;1.494;2023-06-14T17:06:17;12.95;;;7.97;;
78873;SDS011;68250;43.514;1.494;2023-06-14T17:08:45;10.75;;;7.55;;
78873;SDS011;68250;43.514;1.494;2023-06-14T17:11:11;15.13;;;7.90;;
78873;SDS011;68250;43.514;1.494;2023-06-14T17:13:37;11.73;;;7.20;;
78873;SDS011;68250;43.514;1.494;2023-06-14T17:16:03;10.17;;;7.33;;
78873;SDS011;68250;43.514;1.494;2023-06-14T17:18:30;10.50;;;7.20;;
78873;SDS011;68250;43.514;1.494;2023-06-14T17:20:56;12.13;;;7.03;;
78873;SDS011;68250;43.514;1.494;2023-06-14T17:23:21;10.07;;;7.10;;
78873;SDS011;68250;43.514;1.494;2023-06-14T17:25:47;12.23;;;7.33;;
78873;SDS011;68250;43.514;1.494;2023-06-14T17:28:13;12.00;;;7.03;;
78873;SDS011;68250;43.514;1.494;2023-06-14T17:30:38;11.98;;;7.13;;
78873;SDS011;68250;43.514;1.494;2023-06-14T17:33:08;10.63;;;6.63;;
78873;SDS011;68250;43.514;1.494;2023-06-14T17:35:34;14.80;;;6.85;;
78873;SDS011;68250;43.514;1.494;2023-06-14T17:38:01;13.95;;;7.63;;
78873;SDS011;68250;43.514;1.494;2023-06-14T17:40:27;15.13;;;7.15;;
78873;SDS011;68250;43.514;1.494;2023-06-14T17:42:53;9.80;;;6.60;;
78873;SDS011;68250;43.514;1.494;2023-06-14T17:45:19;11.32;;;7.00;;
78873;SDS011;68250;43.514;1.494;2023-06-14T17:47:45;10.40;;;6.87;;
78873;SDS011;68250;43.514;1.494;2023-06-14T17:50:10;12.63;;;7.07;;
78873;SDS011;68250;43.514;1.494;2023-06-14T17:52:36;10.83;;;6.67;;
78873;SDS011;68250;43.514;1.494;2023-06-14T17:55:02;10.75;;;6.82;;
78873;SDS011;68250;43.514;1.494;2023-06-14T17:57:28;14.07;;;6.63;;
78873;SDS011;68250;43.514;1.494;2023-06-14T17:59:53;9.83;;;6.00;;
78873;SDS011;68250;43.514;1.494;2023-06-14T18:02:22;10.68;;;6.47;;
78873;SDS011;68250;43.514;1.494;2023-06-14T18:04:48;10.93;;;6.50;;
78873;SDS011;68250;43.514;1.494;2023-06-14T18:07:14;13.60;;;6.97;;
78873;SDS011;68250;43.514;1.494;2023-06-14T18:09:39;11.43;;;7.10;;
78873;SDS011;68250;43.514;1.494;2023-06-14T18:12:05;11.77;;;6.40;;
78873;SDS011;68250;43.514;1.494;2023-06-14T18:14:33;10.63;;;6.78;;
78873;SDS011;68250;43.514;1.494;2023-06-14T18:16:59;11.80;;;6.88;;
78873;SDS011;68250;43.514;1.494;2023-06-14T18:19:25;14.40;;;7.07;;
78873;SDS011;68250;43.514;1.494;2023-06-14T18:21:54;11.93;;;6.80;;
78873;SDS011;68250;43.514;1.494;2023-06-14T18:24:20;12.52;;;6.63;;
78873;SDS011;68250;43.514;1.494;2023-06-14T18:26:46;10.02;;;6.50;;
78873;SDS011;68250;43.514;1.494;2023-06-14T18:29:12;10.17;;;5.87;;
78873;SDS011;68250;43.514;1.494;2023-06-14T18:31:40;11.10;;;6.43;;
78873;SDS011;68250;43.514;1.494;2023-06-14T18:34:06;9.40;;;6.30;;
78873;SDS011;68250;43.514;1.494;2023-06-14T18:36:32;11.95;;;6.30;;
78873;SDS011;68250;43.514;1.494;2023-06-14T18:38:58;12.37;;;6.47;;
78873;SDS011;68250;43.514;1.494;2023-06-14T18:41:24;9.73;;;5.97;;
78873;SDS011;68250;43.514;1.494;2023-06-14T18:43:50;10.40;;;6.78;;
78873;SDS011;68250;43.514;1.494;2023-06-14T18:46:16;12.68;;;6.47;;
78873;SDS011;68250;43.514;1.494;2023-06-14T18:48:42;9.97;;;6.47;;
78873;SDS011;68250;43.514;1.494;2023-06-14T18:51:09;15.45;;;7.13;;
78873;SDS011;68250;43.514;1.494;2023-06-14T18:53:35;14.88;;;6.80;;
78873;SDS011;68250;43.514;1.494;2023-06-14T18:56:01;10.15;;;6.25;;
78873;SDS011;68250;43.514;1.494;2023-06-14T18:58:27;13.30;;;6.77;;
78873;SDS011;68250;43.514;1.494;2023-06-14T19:00:53;10.05;;;6.25;;
78873;SDS011;68250;43.514;1.494;2023-06-14T19:03:18;10.90;;;6.10;;
78873;SDS011;68250;43.514;1.494;2023-06-14T19:05:44;11.50;;;6.85;;
78873;SDS011;68250;43.514;1.494;2023-06-14T19:08:10;12.47;;;6.30;;
78873;SDS011;68250;43.514;1.494;2023-06-14T19:10:36;9.55;;;6.47;;
78873;SDS011;68250;43.514;1.494;2023-06-14T19:13:02;8.48;;;6.00;;
78873;SDS011;68250;43.514;1.494;2023-06-14T19:15:28;10.65;;;5.60;;
78873;SDS011;68250;43.514;1.494;2023-06-14T19:17:55;9.20;;;5.70;;
78873;SDS011;68250;43.514;1.494;2023-06-14T19:20:22;8.98;;;5.63;;
78873;SDS011;68250;43.514;1.494;2023-06-14T19:22:50;9.20;;;5.68;;
78873;SDS011;68250;43.514;1.494;2023-06-14T19:25:15;10.67;;;5.60;;
78873;SDS011;68250;43.514;1.494;2023-06-14T19:27:41;10.23;;;5.90;;
78873;SDS011;68250;43.514;1.494;2023-06-14T19:30:07;8.88;;;5.53;;